sensor_id;sensor_type;location;lat;lon;timestamp;temperature;humidity
11569;DHT22;5840;46.894;15.542;2023-04-06T00:00:35;0.40;88.00
11569;DHT22;5840;46.894;15.542;2023-04-06T00:03:02;0.40;88.10
11569;DHT22;5840;46.894;15.542;2023-04-06T00:05:29;0.30;87.90
11569;DHT22;5840;46.894;15.542;2023-04-06T00:07:57;0.30;87.80
11569;DHT22;5840;46.894;15.542;2023-04-06T00:10:24;0.20;88.10
11569;DHT22;5840;46.894;15.542;2023-04-06T00:12:52;0.20;88.40
11569;DHT22;5840;46.894;15.542;2023-04-06T00:15:19;0.20;88.40
11569;DHT22;5840;46.894;15.542;2023-04-06T00:17:47;0.10;88.50
11569;DHT22;5840;46.894;15.542;2023-04-06T00:20:14;0.10;88.60
11569;DHT22;5840;46.894;15.542;2023-04-06T00:22:41;0.10;88.60
11569;DHT22;5840;46.894;15.542;2023-04-06T00:25:08;0.00;88.50
11569;DHT22;5840;46.894;15.542;2023-04-06T00:27:35;0.00;89.10
11569;DHT22;5840;46.894;15.542;2023-04-06T00:30:02;0.00;89.50
11569;DHT22;5840;46.894;15.542;2023-04-06T00:32:30;-0.10;90.00
11569;DHT22;5840;46.894;15.542;2023-04-06T00:34:58;-0.10;89.40
11569;DHT22;5840;46.894;15.542;2023-04-06T00:37:25;-0.10;89.60
11569;DHT22;5840;46.894;15.542;2023-04-06T00:39:52;-0.10;89.80
11569;DHT22;5840;46.894;15.542;2023-04-06T00:42:21;-0.10;89.30
11569;DHT22;5840;46.894;15.542;2023-04-06T00:44:52;-0.10;88.90
11569;DHT22;5840;46.894;15.542;2023-04-06T00:47:19;-0.20;89.50
11569;DHT22;5840;46.894;15.542;2023-04-06T00:49:46;-0.20;90.00
11569;DHT22;5840;46.894;15.542;2023-04-06T00:52:15;-0.20;90.00
11569;DHT22;5840;46.894;15.542;2023-04-06T00:54:42;-0.30;89.30
11569;DHT22;5840;46.894;15.542;2023-04-06T00:57:09;-0.30;88.90
11569;DHT22;5840;46.894;15.542;2023-04-06T00:59:36;-0.30;89.80
11569;DHT22;5840;46.894;15.542;2023-04-06T01:02:03;-0.30;90.20
11569;DHT22;5840;46.894;15.542;2023-04-06T01:04:31;-0.40;90.60
11569;DHT22;5840;46.894;15.542;2023-04-06T01:06:57;-0.40;90.50
11569;DHT22;5840;46.894;15.542;2023-04-06T01:09:27;-0.40;90.60
11569;DHT22;5840;46.894;15.542;2023-04-06T01:11:54;-0.50;90.80
11569;DHT22;5840;46.894;15.542;2023-04-06T01:14:21;-0.50;90.90
11569;DHT22;5840;46.894;15.542;2023-04-06T01:16:48;-0.50;91.10
11569;DHT22;5840;46.894;15.542;2023-04-06T01:19:15;-0.60;90.80
11569;DHT22;5840;46.894;15.542;2023-04-06T01:21:42;-0.50;90.50
11569;DHT22;5840;46.894;15.542;2023-04-06T01:24:11;-0.50;90.30
11569;DHT22;5840;46.894;15.542;2023-04-06T01:26:38;-0.60;90.30
11569;DHT22;5840;46.894;15.542;2023-04-06T01:29:05;-0.60;90.30
11569;DHT22;5840;46.894;15.542;2023-04-06T01:31:32;-0.60;90.40
11569;DHT22;5840;46.894;15.542;2023-04-06T01:34:00;-0.60;90.60
11569;DHT22;5840;46.894;15.542;2023-04-06T01:36:26;-0.70;90.90
11569;DHT22;5840;46.894;15.542;2023-04-06T01:38:53;-0.70;90.90
11569;DHT22;5840;46.894;15.542;2023-04-06T01:41:22;-0.80;90.80
11569;DHT22;5840;46.894;15.542;2023-04-06T01:43:50;-0.80;90.80
11569;DHT22;5840;46.894;15.542;2023-04-06T01:46:20;-0.80;91.00
11569;DHT22;5840;46.894;15.542;2023-04-06T01:48:46;-0.80;91.00
11569;DHT22;5840;46.894;15.542;2023-04-06T01:51:14;-0.80;91.30
11569;DHT22;5840;46.894;15.542;2023-04-06T01:53:41;-0.80;91.60
11569;DHT22;5840;46.894;15.542;2023-04-06T01:56:08;-0.90;91.50
11569;DHT22;5840;46.894;15.542;2023-04-06T01:58:36;-0.90;91.90
11569;DHT22;5840;46.894;15.542;2023-04-06T02:01:03;-1.00;92.10
11569;DHT22;5840;46.894;15.542;2023-04-06T02:03:30;-1.00;92.30
11569;DHT22;5840;46.894;15.542;2023-04-06T02:05:57;-1.10;92.20
11569;DHT22;5840;46.894;15.542;2023-04-06T02:08:24;-1.10;92.50
11569;DHT22;5840;46.894;15.542;2023-04-06T02:10:51;-1.10;92.50
11569;DHT22;5840;46.894;15.542;2023-04-06T02:13:18;-1.10;92.40
11569;DHT22;5840;46.894;15.542;2023-04-06T02:15:47;-1.10;92.50
11569;DHT22;5840;46.894;15.542;2023-04-06T02:18:14;-1.10;92.60
11569;DHT22;5840;46.894;15.542;2023-04-06T02:20:43;-1.10;92.70
11569;DHT22;5840;46.894;15.542;2023-04-06T02:23:10;-1.10;92.70
11569;DHT22;5840;46.894;15.542;2023-04-06T02:25:37;-1.20;92.80
11569;DHT22;5840;46.894;15.542;2023-04-06T02:28:04;-1.20;93.00
11569;DHT22;5840;46.894;15.542;2023-04-06T02:30:31;-1.20;93.30
11569;DHT22;5840;46.894;15.542;2023-04-06T02:32:59;-1.30;93.20
11569;DHT22;5840;46.894;15.542;2023-04-06T02:35:28;-1.30;93.00
11569;DHT22;5840;46.894;15.542;2023-04-06T02:37:55;-1.30;93.10
11569;DHT22;5840;46.894;15.542;2023-04-06T02:40:22;-1.30;93.30
11569;DHT22;5840;46.894;15.542;2023-04-06T02:42:49;-1.30;93.30
11569;DHT22;5840;46.894;15.542;2023-04-06T02:45:16;-1.40;93.60
11569;DHT22;5840;46.894;15.542;2023-04-06T02:47:44;-1.40;93.90
11569;DHT22;5840;46.894;15.542;2023-04-06T02:50:12;-1.50;94.10
11569;DHT22;5840;46.894;15.542;2023-04-06T02:52:39;-1.50;93.70
11569;DHT22;5840;46.894;15.542;2023-04-06T02:55:07;-1.50;93.70
11569;DHT22;5840;46.894;15.542;2023-04-06T02:57:34;-1.50;93.60
11569;DHT22;5840;46.894;15.542;2023-04-06T03:00:01;-1.50;93.60
11569;DHT22;5840;46.894;15.542;2023-04-06T03:02:28;-1.50;93.50
11569;DHT22;5840;46.894;15.542;2023-04-06T03:04:55;-1.50;94.00
11569;DHT22;5840;46.894;15.542;2023-04-06T03:07:23;-1.60;93.80
11569;DHT22;5840;46.894;15.542;2023-04-06T03:09:50;-1.60;94.10
11569;DHT22;5840;46.894;15.542;2023-04-06T03:12:17;-1.60;94.30
11569;DHT22;5840;46.894;15.542;2023-04-06T03:14:44;-1.70;94.80
11569;DHT22;5840;46.894;15.542;2023-04-06T03:17:11;-1.70;95.10
11569;DHT22;5840;46.894;15.542;2023-04-06T03:19:38;-1.70;95.20
11569;DHT22;5840;46.894;15.542;2023-04-06T03:22:05;-1.80;95.20
11569;DHT22;5840;46.894;15.542;2023-04-06T03:24:33;-1.80;95.40
11569;DHT22;5840;46.894;15.542;2023-04-06T03:27:00;-1.80;95.40
11569;DHT22;5840;46.894;15.542;2023-04-06T03:29:27;-1.80;95.30
11569;DHT22;5840;46.894;15.542;2023-04-06T03:31:54;-1.80;95.00
11569;DHT22;5840;46.894;15.542;2023-04-06T03:34:21;-1.70;95.00
11569;DHT22;5840;46.894;15.542;2023-04-06T03:36:48;-1.80;94.90
11569;DHT22;5840;46.894;15.542;2023-04-06T03:39:15;-1.70;94.90
11569;DHT22;5840;46.894;15.542;2023-04-06T03:41:43;-1.80;95.30
11569;DHT22;5840;46.894;15.542;2023-04-06T03:44:10;-1.80;95.60
11569;DHT22;5840;46.894;15.542;2023-04-06T03:46:37;-1.80;95.70
11569;DHT22;5840;46.894;15.542;2023-04-06T03:49:05;-1.80;95.80
11569;DHT22;5840;46.894;15.542;2023-04-06T03:51:31;-1.80;95.80
11569;DHT22;5840;46.894;15.542;2023-04-06T03:53:58;-1.80;96.20
11569;DHT22;5840;46.894;15.542;2023-04-06T03:56:25;-1.90;96.00
11569;DHT22;5840;46.894;15.542;2023-04-06T03:58:54;-1.90;96.00
11569;DHT22;5840;46.894;15.542;2023-04-06T04:01:21;-1.90;96.30
11569;DHT22;5840;46.894;15.542;2023-04-06T04:03:48;-1.90;96.50
11569;DHT22;5840;46.894;15.542;2023-04-06T04:06:15;-2.00;96.60
11569;DHT22;5840;46.894;15.542;2023-04-06T04:08:42;-2.00;96.70
11569;DHT22;5840;46.894;15.542;2023-04-06T04:11:09;-2.00;96.80
11569;DHT22;5840;46.894;15.542;2023-04-06T04:13:36;-2.00;96.80
11569;DHT22;5840;46.894;15.542;2023-04-06T04:16:04;-2.10;96.80
11569;DHT22;5840;46.894;15.542;2023-04-06T04:18:31;-2.10;96.80
11569;DHT22;5840;46.894;15.542;2023-04-06T04:20:58;-2.00;97.40
11569;DHT22;5840;46.894;15.542;2023-04-06T04:23:25;-2.00;97.30
11569;DHT22;5840;46.894;15.542;2023-04-06T04:25:52;-2.00;97.30
11569;DHT22;5840;46.894;15.542;2023-04-06T04:28:19;-2.10;97.60
11569;DHT22;5840;46.894;15.542;2023-04-06T04:30:46;-2.10;97.70
11569;DHT22;5840;46.894;15.542;2023-04-06T04:33:14;-2.20;97.80
11569;DHT22;5840;46.894;15.542;2023-04-06T04:35:41;-2.20;97.90
11569;DHT22;5840;46.894;15.542;2023-04-06T04:38:08;-2.20;97.90
11569;DHT22;5840;46.894;15.542;2023-04-06T04:40:35;-2.20;98.20
11569;DHT22;5840;46.894;15.542;2023-04-06T04:43:02;-2.20;98.10
11569;DHT22;5840;46.894;15.542;2023-04-06T04:45:29;-2.20;97.80
11569;DHT22;5840;46.894;15.542;2023-04-06T04:47:56;-2.30;97.70
11569;DHT22;5840;46.894;15.542;2023-04-06T04:50:25;-2.20;97.70
11569;DHT22;5840;46.894;15.542;2023-04-06T04:52:52;-2.20;98.10
11569;DHT22;5840;46.894;15.542;2023-04-06T04:55:19;-2.20;98.40
11569;DHT22;5840;46.894;15.542;2023-04-06T04:57:46;-2.20;98.50
11569;DHT22;5840;46.894;15.542;2023-04-06T05:00:13;-2.30;98.60
11569;DHT22;5840;46.894;15.542;2023-04-06T05:02:40;-2.30;98.70
11569;DHT22;5840;46.894;15.542;2023-04-06T05:05:08;-2.30;98.90
11569;DHT22;5840;46.894;15.542;2023-04-06T05:07:36;-2.30;98.60
11569;DHT22;5840;46.894;15.542;2023-04-06T05:10:04;-2.20;98.70
11569;DHT22;5840;46.894;15.542;2023-04-06T05:12:31;-2.20;98.90
11569;DHT22;5840;46.894;15.542;2023-04-06T05:14:58;-2.20;99.00
11569;DHT22;5840;46.894;15.542;2023-04-06T05:17:25;-2.20;99.10
11569;DHT22;5840;46.894;15.542;2023-04-06T05:19:52;-2.10;99.20
11569;DHT22;5840;46.894;15.542;2023-04-06T05:22:19;-2.20;99.30
11569;DHT22;5840;46.894;15.542;2023-04-06T05:24:47;-2.10;99.40
11569;DHT22;5840;46.894;15.542;2023-04-06T05:27:14;-2.10;99.80
11569;DHT22;5840;46.894;15.542;2023-04-06T05:29:41;-2.10;99.90
11569;DHT22;5840;46.894;15.542;2023-04-06T05:32:08;-2.00;99.90
11569;DHT22;5840;46.894;15.542;2023-04-06T05:34:36;-1.90;99.90
11569;DHT22;5840;46.894;15.542;2023-04-06T05:37:03;-1.80;99.90
11569;DHT22;5840;46.894;15.542;2023-04-06T05:39:30;-1.80;99.90
11569;DHT22;5840;46.894;15.542;2023-04-06T05:42:01;-1.70;99.80
11569;DHT22;5840;46.894;15.542;2023-04-06T05:44:28;-1.60;99.60
11569;DHT22;5840;46.894;15.542;2023-04-06T05:46:55;-1.50;99.90
11569;DHT22;5840;46.894;15.542;2023-04-06T05:49:22;-1.40;99.90
11569;DHT22;5840;46.894;15.542;2023-04-06T05:51:49;-1.40;99.90
11569;DHT22;5840;46.894;15.542;2023-04-06T05:54:16;-1.30;99.50
11569;DHT22;5840;46.894;15.542;2023-04-06T05:56:43;-1.20;99.30
11569;DHT22;5840;46.894;15.542;2023-04-06T05:59:11;-1.10;99.30
11569;DHT22;5840;46.894;15.542;2023-04-06T06:01:38;-1.00;99.10
11569;DHT22;5840;46.894;15.542;2023-04-06T06:04:05;-0.90;99.00
11569;DHT22;5840;46.894;15.542;2023-04-06T06:06:32;-0.80;98.90
11569;DHT22;5840;46.894;15.542;2023-04-06T06:08:59;-0.70;99.00
11569;DHT22;5840;46.894;15.542;2023-04-06T06:11:26;-0.60;97.80
11569;DHT22;5840;46.894;15.542;2023-04-06T06:13:53;-0.50;97.50
11569;DHT22;5840;46.894;15.542;2023-04-06T06:16:22;-0.40;97.70
11569;DHT22;5840;46.894;15.542;2023-04-06T06:18:49;-0.20;97.20
11569;DHT22;5840;46.894;15.542;2023-04-06T06:21:16;-0.10;96.90
11569;DHT22;5840;46.894;15.542;2023-04-06T06:23:43;0.00;96.90
11569;DHT22;5840;46.894;15.542;2023-04-06T06:26:10;0.20;97.10
11569;DHT22;5840;46.894;15.542;2023-04-06T06:28:37;0.30;96.30
11569;DHT22;5840;46.894;15.542;2023-04-06T06:31:04;0.50;95.80
11569;DHT22;5840;46.894;15.542;2023-04-06T06:33:32;0.70;95.50
11569;DHT22;5840;46.894;15.542;2023-04-06T06:35:59;0.90;95.30
11569;DHT22;5840;46.894;15.542;2023-04-06T06:38:26;1.10;95.30
11569;DHT22;5840;46.894;15.542;2023-04-06T06:40:53;1.20;95.10
11569;DHT22;5840;46.894;15.542;2023-04-06T06:43:20;1.40;95.70
11569;DHT22;5840;46.894;15.542;2023-04-06T06:45:47;1.60;94.70
11569;DHT22;5840;46.894;15.542;2023-04-06T06:48:14;1.80;94.40
11569;DHT22;5840;46.894;15.542;2023-04-06T06:50:42;1.90;94.40
11569;DHT22;5840;46.894;15.542;2023-04-06T06:53:09;2.00;94.00
11569;DHT22;5840;46.894;15.542;2023-04-06T06:55:37;2.20;93.30
11569;DHT22;5840;46.894;15.542;2023-04-06T06:58:04;2.40;93.20
11569;DHT22;5840;46.894;15.542;2023-04-06T07:00:31;2.40;93.40
11569;DHT22;5840;46.894;15.542;2023-04-06T07:02:58;2.50;94.40
11569;DHT22;5840;46.894;15.542;2023-04-06T07:05:25;2.60;93.80
11569;DHT22;5840;46.894;15.542;2023-04-06T07:07:54;2.70;93.30
11569;DHT22;5840;46.894;15.542;2023-04-06T07:10:21;2.80;93.10
11569;DHT22;5840;46.894;15.542;2023-04-06T07:12:48;2.80;92.40
11569;DHT22;5840;46.894;15.542;2023-04-06T07:15:16;2.90;92.20
11569;DHT22;5840;46.894;15.542;2023-04-06T07:17:43;3.00;93.10
11569;DHT22;5840;46.894;15.542;2023-04-06T07:20:11;3.10;92.20
11569;DHT22;5840;46.894;15.542;2023-04-06T07:22:38;3.40;93.50
11569;DHT22;5840;46.894;15.542;2023-04-06T07:25:07;3.60;92.70
11569;DHT22;5840;46.894;15.542;2023-04-06T07:27:34;3.80;91.70
11569;DHT22;5840;46.894;15.542;2023-04-06T07:30:01;3.90;92.10
11569;DHT22;5840;46.894;15.542;2023-04-06T07:32:28;4.20;92.10
11569;DHT22;5840;46.894;15.542;2023-04-06T07:34:55;4.40;91.70
11569;DHT22;5840;46.894;15.542;2023-04-06T07:37:22;4.50;90.30
11569;DHT22;5840;46.894;15.542;2023-04-06T07:39:49;4.70;90.40
11569;DHT22;5840;46.894;15.542;2023-04-06T07:42:18;5.00;89.60
11569;DHT22;5840;46.894;15.542;2023-04-06T07:44:45;5.30;88.20
11569;DHT22;5840;46.894;15.542;2023-04-06T07:47:13;5.60;86.10
11569;DHT22;5840;46.894;15.542;2023-04-06T07:49:41;6.00;87.90
11569;DHT22;5840;46.894;15.542;2023-04-06T07:52:08;6.40;83.90
11569;DHT22;5840;46.894;15.542;2023-04-06T07:54:35;6.70;81.00
11569;DHT22;5840;46.894;15.542;2023-04-06T07:57:02;7.00;78.40
11569;DHT22;5840;46.894;15.542;2023-04-06T07:59:30;7.30;75.10
11569;DHT22;5840;46.894;15.542;2023-04-06T08:01:57;7.40;75.10
11569;DHT22;5840;46.894;15.542;2023-04-06T08:04:24;7.50;70.90
11569;DHT22;5840;46.894;15.542;2023-04-06T08:06:51;7.70;72.60
11569;DHT22;5840;46.894;15.542;2023-04-06T08:09:18;7.80;71.20
11569;DHT22;5840;46.894;15.542;2023-04-06T08:11:45;8.10;72.70
11569;DHT22;5840;46.894;15.542;2023-04-06T08:14:13;8.40;69.70
11569;DHT22;5840;46.894;15.542;2023-04-06T08:16:42;8.70;73.40
11569;DHT22;5840;46.894;15.542;2023-04-06T08:19:09;9.00;73.60
11569;DHT22;5840;46.894;15.542;2023-04-06T08:21:36;9.20;70.20
11569;DHT22;5840;46.894;15.542;2023-04-06T08:24:04;9.40;69.30
11569;DHT22;5840;46.894;15.542;2023-04-06T08:26:31;9.60;71.00
11569;DHT22;5840;46.894;15.542;2023-04-06T08:28:58;9.80;68.60
11569;DHT22;5840;46.894;15.542;2023-04-06T08:31:25;9.60;65.70
11569;DHT22;5840;46.894;15.542;2023-04-06T08:33:54;9.70;68.60
11569;DHT22;5840;46.894;15.542;2023-04-06T08:36:21;9.90;69.10
11569;DHT22;5840;46.894;15.542;2023-04-06T08:38:49;9.80;66.10
11569;DHT22;5840;46.894;15.542;2023-04-06T08:41:16;10.00;63.70
11569;DHT22;5840;46.894;15.542;2023-04-06T08:43:44;10.30;69.30
11569;DHT22;5840;46.894;15.542;2023-04-06T08:46:13;10.60;69.30
11569;DHT22;5840;46.894;15.542;2023-04-06T08:48:40;10.90;65.40
11569;DHT22;5840;46.894;15.542;2023-04-06T08:51:10;11.30;67.20
11569;DHT22;5840;46.894;15.542;2023-04-06T08:53:37;11.60;66.60
11569;DHT22;5840;46.894;15.542;2023-04-06T08:56:04;11.80;61.80
11569;DHT22;5840;46.894;15.542;2023-04-06T08:58:34;11.90;60.00
11569;DHT22;5840;46.894;15.542;2023-04-06T09:01:02;11.80;60.00
11569;DHT22;5840;46.894;15.542;2023-04-06T09:03:31;11.70;59.20
11569;DHT22;5840;46.894;15.542;2023-04-06T09:06:01;11.60;59.50
11569;DHT22;5840;46.894;15.542;2023-04-06T09:08:32;11.70;59.70
11569;DHT22;5840;46.894;15.542;2023-04-06T09:10:59;11.70;60.90
11569;DHT22;5840;46.894;15.542;2023-04-06T09:13:26;11.90;61.30
11569;DHT22;5840;46.894;15.542;2023-04-06T09:16:01;12.20;64.90
11569;DHT22;5840;46.894;15.542;2023-04-06T09:18:28;12.50;59.90
11569;DHT22;5840;46.894;15.542;2023-04-06T09:21:00;12.90;63.90
11569;DHT22;5840;46.894;15.542;2023-04-06T09:23:28;13.10;62.30
11569;DHT22;5840;46.894;15.542;2023-04-06T09:26:07;13.30;59.50
11569;DHT22;5840;46.894;15.542;2023-04-06T09:28:44;13.40;60.50
11569;DHT22;5840;46.894;15.542;2023-04-06T09:31:12;13.50;59.10
11569;DHT22;5840;46.894;15.542;2023-04-06T09:33:41;13.70;62.10
11569;DHT22;5840;46.894;15.542;2023-04-06T09:36:08;13.90;57.10
11569;DHT22;5840;46.894;15.542;2023-04-06T09:38:37;13.80;62.10
11569;DHT22;5840;46.894;15.542;2023-04-06T09:41:05;13.90;58.80
11569;DHT22;5840;46.894;15.542;2023-04-06T09:43:32;13.90;57.40
11569;DHT22;5840;46.894;15.542;2023-04-06T09:46:01;14.20;60.20
11569;DHT22;5840;46.894;15.542;2023-04-06T09:48:31;14.30;59.30
11569;DHT22;5840;46.894;15.542;2023-04-06T09:51:03;14.40;54.40
11569;DHT22;5840;46.894;15.542;2023-04-06T09:53:31;14.40;59.70
11569;DHT22;5840;46.894;15.542;2023-04-06T09:56:02;14.40;58.70
11569;DHT22;5840;46.894;15.542;2023-04-06T09:58:34;14.40;55.40
11569;DHT22;5840;46.894;15.542;2023-04-06T10:01:06;14.60;55.40
11569;DHT22;5840;46.894;15.542;2023-04-06T10:03:39;14.50;59.70
11569;DHT22;5840;46.894;15.542;2023-04-06T10:06:11;14.60;53.70
11569;DHT22;5840;46.894;15.542;2023-04-06T10:08:40;14.60;56.60
11569;DHT22;5840;46.894;15.542;2023-04-06T10:11:09;14.80;53.70
11569;DHT22;5840;46.894;15.542;2023-04-06T10:13:38;14.60;55.20
11569;DHT22;5840;46.894;15.542;2023-04-06T10:16:06;14.90;55.70
11569;DHT22;5840;46.894;15.542;2023-04-06T10:18:34;15.20;55.20
11569;DHT22;5840;46.894;15.542;2023-04-06T10:21:05;15.50;51.00
11569;DHT22;5840;46.894;15.542;2023-04-06T10:23:36;15.70;55.80
11569;DHT22;5840;46.894;15.542;2023-04-06T10:26:04;15.70;52.00
11569;DHT22;5840;46.894;15.542;2023-04-06T10:28:32;15.80;55.50
11569;DHT22;5840;46.894;15.542;2023-04-06T10:31:03;15.70;55.60
11569;DHT22;5840;46.894;15.542;2023-04-06T10:33:31;15.60;56.30
11569;DHT22;5840;46.894;15.542;2023-04-06T10:35:58;16.00;54.00
11569;DHT22;5840;46.894;15.542;2023-04-06T10:38:36;16.10;52.70
11569;DHT22;5840;46.894;15.542;2023-04-06T10:41:04;16.40;55.90
11569;DHT22;5840;46.894;15.542;2023-04-06T10:43:33;16.40;51.00
11569;DHT22;5840;46.894;15.542;2023-04-06T10:46:03;16.50;53.50
11569;DHT22;5840;46.894;15.542;2023-04-06T10:48:37;16.10;50.70
11569;DHT22;5840;46.894;15.542;2023-04-06T10:51:08;16.20;51.10
11569;DHT22;5840;46.894;15.542;2023-04-06T10:53:36;16.40;53.30
11569;DHT22;5840;46.894;15.542;2023-04-06T10:56:04;16.50;53.50
11569;DHT22;5840;46.894;15.542;2023-04-06T10:58:35;16.70;52.40
11569;DHT22;5840;46.894;15.542;2023-04-06T11:01:04;16.70;52.40
11569;DHT22;5840;46.894;15.542;2023-04-06T11:03:31;16.90;53.90
11569;DHT22;5840;46.894;15.542;2023-04-06T11:05:59;17.00;54.20
11569;DHT22;5840;46.894;15.542;2023-04-06T11:08:28;17.30;52.50
11569;DHT22;5840;46.894;15.542;2023-04-06T11:11:05;17.30;52.30
11569;DHT22;5840;46.894;15.542;2023-04-06T11:13:40;17.40;52.30
11569;DHT22;5840;46.894;15.542;2023-04-06T11:16:14;17.50;53.50
11569;DHT22;5840;46.894;15.542;2023-04-06T11:18:51;17.30;50.90
11569;DHT22;5840;46.894;15.542;2023-04-06T11:21:20;17.10;49.00
11569;DHT22;5840;46.894;15.542;2023-04-06T11:23:47;16.90;50.90
11569;DHT22;5840;46.894;15.542;2023-04-06T11:26:14;16.90;53.00
11569;DHT22;5840;46.894;15.542;2023-04-06T11:28:41;17.00;52.70
11569;DHT22;5840;46.894;15.542;2023-04-06T11:31:09;17.10;52.40
11569;DHT22;5840;46.894;15.542;2023-04-06T11:33:39;17.40;53.50
11569;DHT22;5840;46.894;15.542;2023-04-06T11:36:07;17.50;51.70
11569;DHT22;5840;46.894;15.542;2023-04-06T11:38:34;17.40;48.70
11569;DHT22;5840;46.894;15.542;2023-04-06T11:41:05;17.40;52.40
11569;DHT22;5840;46.894;15.542;2023-04-06T11:43:32;17.60;54.30
11569;DHT22;5840;46.894;15.542;2023-04-06T11:46:02;17.70;51.20
11569;DHT22;5840;46.894;15.542;2023-04-06T11:48:30;18.10;51.50
11569;DHT22;5840;46.894;15.542;2023-04-06T11:50:58;18.40;47.60
11569;DHT22;5840;46.894;15.542;2023-04-06T11:53:27;18.40;49.30
11569;DHT22;5840;46.894;15.542;2023-04-06T11:55:54;18.30;44.20
11569;DHT22;5840;46.894;15.542;2023-04-06T11:58:21;18.30;45.60
11569;DHT22;5840;46.894;15.542;2023-04-06T12:00:48;18.10;45.20
11569;DHT22;5840;46.894;15.542;2023-04-06T12:03:15;17.80;48.60
11569;DHT22;5840;46.894;15.542;2023-04-06T12:05:43;17.90;49.10
11569;DHT22;5840;46.894;15.542;2023-04-06T12:08:11;18.00;47.10
11569;DHT22;5840;46.894;15.542;2023-04-06T12:10:38;17.80;45.70
11569;DHT22;5840;46.894;15.542;2023-04-06T12:13:05;17.90;49.50
11569;DHT22;5840;46.894;15.542;2023-04-06T12:15:32;18.00;45.80
11569;DHT22;5840;46.894;15.542;2023-04-06T12:17:59;18.10;49.80
11569;DHT22;5840;46.894;15.542;2023-04-06T12:20:26;18.30;48.60
11569;DHT22;5840;46.894;15.542;2023-04-06T12:22:53;18.40;45.50
11569;DHT22;5840;46.894;15.542;2023-04-06T12:25:21;18.40;46.70
11569;DHT22;5840;46.894;15.542;2023-04-06T12:27:48;18.30;47.90
11569;DHT22;5840;46.894;15.542;2023-04-06T12:30:16;18.60;50.00
11569;DHT22;5840;46.894;15.542;2023-04-06T12:32:43;18.70;46.50
11569;DHT22;5840;46.894;15.542;2023-04-06T12:35:10;18.80;48.00
11569;DHT22;5840;46.894;15.542;2023-04-06T12:37:41;19.00;47.10
11569;DHT22;5840;46.894;15.542;2023-04-06T12:40:09;19.00;48.50
11569;DHT22;5840;46.894;15.542;2023-04-06T12:42:39;19.10;46.70
11569;DHT22;5840;46.894;15.542;2023-04-06T12:45:08;18.70;49.10
11569;DHT22;5840;46.894;15.542;2023-04-06T12:47:35;18.40;42.50
11569;DHT22;5840;46.894;15.542;2023-04-06T12:50:03;18.40;47.90
11569;DHT22;5840;46.894;15.542;2023-04-06T12:52:31;18.60;46.80
11569;DHT22;5840;46.894;15.542;2023-04-06T12:55:00;18.60;45.00
11569;DHT22;5840;46.894;15.542;2023-04-06T12:57:27;18.50;45.80
11569;DHT22;5840;46.894;15.542;2023-04-06T12:59:56;18.60;48.80
11569;DHT22;5840;46.894;15.542;2023-04-06T13:02:23;18.70;45.80
11569;DHT22;5840;46.894;15.542;2023-04-06T13:04:51;19.00;45.70
11569;DHT22;5840;46.894;15.542;2023-04-06T13:07:18;19.10;47.30
11569;DHT22;5840;46.894;15.542;2023-04-06T13:09:45;19.30;41.50
11569;DHT22;5840;46.894;15.542;2023-04-06T13:12:15;19.30;38.80
11569;DHT22;5840;46.894;15.542;2023-04-06T13:14:42;19.10;42.50
11569;DHT22;5840;46.894;15.542;2023-04-06T13:17:10;19.10;45.00
11569;DHT22;5840;46.894;15.542;2023-04-06T13:19:37;18.90;46.00
11569;DHT22;5840;46.894;15.542;2023-04-06T13:22:04;18.90;45.50
11569;DHT22;5840;46.894;15.542;2023-04-06T13:24:31;18.90;47.20
11569;DHT22;5840;46.894;15.542;2023-04-06T13:26:58;18.90;47.80
11569;DHT22;5840;46.894;15.542;2023-04-06T13:29:26;18.90;47.50
11569;DHT22;5840;46.894;15.542;2023-04-06T13:31:52;18.90;46.20
11569;DHT22;5840;46.894;15.542;2023-04-06T13:34:21;18.90;44.50
11569;DHT22;5840;46.894;15.542;2023-04-06T13:36:48;18.90;45.20
11569;DHT22;5840;46.894;15.542;2023-04-06T13:39:15;18.90;45.80
11569;DHT22;5840;46.894;15.542;2023-04-06T13:41:42;19.10;45.50
11569;DHT22;5840;46.894;15.542;2023-04-06T13:44:09;18.90;45.10
11569;DHT22;5840;46.894;15.542;2023-04-06T13:46:35;18.90;44.50
11569;DHT22;5840;46.894;15.542;2023-04-06T13:49:02;19.00;45.70
11569;DHT22;5840;46.894;15.542;2023-04-06T13:51:31;19.00;44.10
11569;DHT22;5840;46.894;15.542;2023-04-06T13:53:58;18.60;44.40
11569;DHT22;5840;46.894;15.542;2023-04-06T13:56:24;18.40;45.40
11569;DHT22;5840;46.894;15.542;2023-04-06T13:58:53;18.20;43.70
11569;DHT22;5840;46.894;15.542;2023-04-06T14:01:21;18.10;43.60
11569;DHT22;5840;46.894;15.542;2023-04-06T14:03:48;18.00;47.00
11569;DHT22;5840;46.894;15.542;2023-04-06T14:06:15;18.10;46.50
11569;DHT22;5840;46.894;15.542;2023-04-06T14:08:43;18.00;48.80
11569;DHT22;5840;46.894;15.542;2023-04-06T14:11:11;18.20;47.30
11569;DHT22;5840;46.894;15.542;2023-04-06T14:13:38;18.30;47.30
11569;DHT22;5840;46.894;15.542;2023-04-06T14:16:06;18.10;44.50
11569;DHT22;5840;46.894;15.542;2023-04-06T14:18:33;17.80;44.50
11569;DHT22;5840;46.894;15.542;2023-04-06T14:21:00;17.70;44.40
11569;DHT22;5840;46.894;15.542;2023-04-06T14:23:28;17.70;44.40
11569;DHT22;5840;46.894;15.542;2023-04-06T14:26:02;17.80;44.10
11569;DHT22;5840;46.894;15.542;2023-04-06T14:28:31;17.90;43.10
11569;DHT22;5840;46.894;15.542;2023-04-06T14:30:59;17.80;44.90
11569;DHT22;5840;46.894;15.542;2023-04-06T14:33:26;17.60;46.00
11569;DHT22;5840;46.894;15.542;2023-04-06T14:35:53;17.40;44.80
11569;DHT22;5840;46.894;15.542;2023-04-06T14:38:19;17.20;46.50
11569;DHT22;5840;46.894;15.542;2023-04-06T14:40:46;17.10;46.50
11569;DHT22;5840;46.894;15.542;2023-04-06T14:43:15;17.10;46.80
11569;DHT22;5840;46.894;15.542;2023-04-06T14:45:42;17.00;46.10
11569;DHT22;5840;46.894;15.542;2023-04-06T14:48:08;16.70;45.60
11569;DHT22;5840;46.894;15.542;2023-04-06T14:50:38;16.70;44.80
11569;DHT22;5840;46.894;15.542;2023-04-06T14:53:05;16.80;47.00
11569;DHT22;5840;46.894;15.542;2023-04-06T14:55:32;16.90;47.70
11569;DHT22;5840;46.894;15.542;2023-04-06T14:57:59;16.90;46.70
11569;DHT22;5840;46.894;15.542;2023-04-06T15:00:27;16.80;46.30
11569;DHT22;5840;46.894;15.542;2023-04-06T15:02:54;16.80;45.70
11569;DHT22;5840;46.894;15.542;2023-04-06T15:05:21;16.60;45.60
11569;DHT22;5840;46.894;15.542;2023-04-06T15:07:48;16.40;43.70
11569;DHT22;5840;46.894;15.542;2023-04-06T15:10:15;16.30;45.20
11569;DHT22;5840;46.894;15.542;2023-04-06T15:12:42;16.20;48.20
11569;DHT22;5840;46.894;15.542;2023-04-06T15:15:10;16.20;46.60
11569;DHT22;5840;46.894;15.542;2023-04-06T15:17:39;16.10;47.10
11569;DHT22;5840;46.894;15.542;2023-04-06T15:20:06;16.00;46.80
11569;DHT22;5840;46.894;15.542;2023-04-06T15:22:33;16.00;47.70
11569;DHT22;5840;46.894;15.542;2023-04-06T15:25:00;15.80;47.10
11569;DHT22;5840;46.894;15.542;2023-04-06T15:27:27;15.80;45.20
11569;DHT22;5840;46.894;15.542;2023-04-06T15:29:54;15.60;48.90
11569;DHT22;5840;46.894;15.542;2023-04-06T15:32:21;15.60;48.10
11569;DHT22;5840;46.894;15.542;2023-04-06T15:34:49;15.60;47.20